createdAt,value
2019-01-18T00:00:30.699Z,2.00
2019-01-18T00:03:17.930Z,2.20
2019-01-18T00:06:05.328Z,2.30
2019-01-18T00:08:52.868Z,2.20
2019-01-18T00:11:40.307Z,2.00
2019-01-18T00:14:27.620Z,2.00
2019-01-18T00:17:14.796Z,1.60
2019-01-18T00:20:02.561Z,1.50
2019-01-18T00:22:49.833Z,1.50
2019-01-18T00:25:37.547Z,1.50
2019-01-18T00:28:25.135Z,1.60
2019-01-18T00:31:12.416Z,1.50
2019-01-18T00:33:59.758Z,1.30
2019-01-18T00:36:46.739Z,1.30
2019-01-18T00:39:33.664Z,1.60
2019-01-18T00:42:21.186Z,1.80
2019-01-18T00:45:11.775Z,1.70
2019-01-18T00:47:59.613Z,2.00
2019-01-18T00:50:46.688Z,2.20
2019-01-18T00:53:33.868Z,2.30
2019-01-18T00:56:21.209Z,2.30
2019-01-18T00:59:08.525Z,2.30
2019-01-18T01:01:55.735Z,2.20
2019-01-18T01:04:43.208Z,2.30
2019-01-18T01:07:30.715Z,2.20
2019-01-18T01:10:18.215Z,2.00
2019-01-18T01:13:05.696Z,2.00
2019-01-18T01:15:53.181Z,2.00
2019-01-18T01:18:40.901Z,2.20
2019-01-18T01:21:28.075Z,1.90
2019-01-18T01:24:15.464Z,2.00
2019-01-18T01:27:02.960Z,1.90
2019-01-18T01:29:49.897Z,2.00
2019-01-18T01:32:37.134Z,2.00
2019-01-18T01:35:24.594Z,2.20
2019-01-18T01:38:11.770Z,2.30
2019-01-18T01:40:59.272Z,2.10
2019-01-18T01:43:46.612Z,1.90
2019-01-18T01:46:34.050Z,2.20
2019-01-18T01:49:21.496Z,2.00
2019-01-18T01:52:09.082Z,2.00
2019-01-18T01:54:56.519Z,1.70
2019-01-18T01:57:43.873Z,1.50
2019-01-18T02:00:31.496Z,1.60
2019-01-18T02:03:18.650Z,2.00
2019-01-18T02:06:05.953Z,1.70
2019-01-18T02:08:53.592Z,1.70
2019-01-18T02:11:40.892Z,1.90
2019-01-18T02:14:28.465Z,1.40
2019-01-18T02:17:15.821Z,1.20
2019-01-18T02:20:03.237Z,1.00
2019-01-18T02:22:51.364Z,1.20
2019-01-18T02:25:38.517Z,1.20
2019-01-18T02:28:25.919Z,1.20
2019-01-18T02:31:13.511Z,1.40
2019-01-18T02:34:01.228Z,1.30
2019-01-18T02:36:48.648Z,1.60
2019-01-18T02:39:36.107Z,1.00
2019-01-18T02:42:23.579Z,1.20
2019-01-18T02:45:22.704Z,1.00
2019-01-18T02:48:09.811Z,1.30
2019-01-18T02:50:57.274Z,1.20
2019-01-18T02:53:44.498Z,1.20
2019-01-18T02:56:31.744Z,1.30
2019-01-18T02:59:19.354Z,1.40
2019-01-18T03:02:07.019Z,1.30
2019-01-18T03:04:54.227Z,1.40
2019-01-18T03:07:41.769Z,1.40
2019-01-18T03:10:30.585Z,1.20
2019-01-18T03:13:17.551Z,1.20
2019-01-18T03:16:05.158Z,1.70
2019-01-18T03:18:52.786Z,1.50
2019-01-18T03:21:40.491Z,1.20
2019-01-18T03:24:27.874Z,1.50
2019-01-18T03:27:15.104Z,1.80
2019-01-18T03:30:02.774Z,1.90
2019-01-18T03:32:50.574Z,2.00
2019-01-18T03:35:37.929Z,2.10
2019-01-18T03:38:25.222Z,1.80
2019-01-18T03:41:12.606Z,1.90
2019-01-18T03:43:59.880Z,1.60
2019-01-18T03:46:47.578Z,1.60
2019-01-18T03:49:35.105Z,1.60
2019-01-18T03:52:22.512Z,1.80
2019-01-18T03:55:10.622Z,1.90
2019-01-18T03:57:58.060Z,2.00
2019-01-18T04:00:45.346Z,1.70
2019-01-18T04:03:32.545Z,1.90
2019-01-18T04:06:19.739Z,1.90
2019-01-18T04:09:07.739Z,1.80
2019-01-18T04:11:55.168Z,1.70
2019-01-18T04:14:42.737Z,1.70
2019-01-18T04:17:30.256Z,1.80
2019-01-18T04:20:18.930Z,1.70
2019-01-18T04:23:06.453Z,1.80
2019-01-18T04:25:54.005Z,1.60
2019-01-18T04:28:41.569Z,1.80
2019-01-18T04:31:29.060Z,1.90
2019-01-18T04:34:16.323Z,1.80
2019-01-18T04:37:03.872Z,1.90
2019-01-18T04:39:51.290Z,1.90
2019-01-18T04:42:39.024Z,1.80
2019-01-18T04:45:26.359Z,1.80
2019-01-18T04:48:13.807Z,1.70
2019-01-18T04:51:01.483Z,1.60
2019-01-18T04:53:48.634Z,1.50
2019-01-18T04:56:36.210Z,1.50
2019-01-18T04:59:23.487Z,1.40
2019-01-18T05:02:10.924Z,1.20
2019-01-18T05:04:58.504Z,1.10
2019-01-18T05:07:45.749Z,1.20
2019-01-18T05:10:33.503Z,1.30
2019-01-18T05:13:19.659Z,1.20
2019-01-18T05:16:07.784Z,0.20
2019-01-18T05:18:54.197Z,-0.10
2019-01-18T05:21:40.202Z,-0.30
2019-01-18T05:24:26.349Z,-0.60
2019-01-18T05:27:13.589Z,-0.40
2019-01-18T05:30:00.841Z,0.00
2019-01-18T05:32:48.640Z,0.20
2019-01-18T05:35:35.863Z,0.70
2019-01-18T05:38:23.280Z,0.80
2019-01-18T05:41:10.485Z,0.90
2019-01-18T05:43:57.544Z,0.80
2019-01-18T05:46:44.832Z,0.60
2019-01-18T05:49:31.689Z,0.80
2019-01-18T05:52:18.770Z,0.80
2019-01-18T05:55:06.401Z,0.70
2019-01-18T05:57:53.785Z,0.60
2019-01-18T06:00:45.442Z,0.70
2019-01-18T06:03:32.749Z,0.60
2019-01-18T06:06:20.385Z,0.60
2019-01-18T06:09:08.022Z,0.60
2019-01-18T06:11:55.343Z,0.60
2019-01-18T06:14:42.565Z,0.60
2019-01-18T06:17:29.577Z,0.60
2019-01-18T06:20:17.403Z,0.60
2019-01-18T06:23:05.095Z,0.40
2019-01-18T06:25:52.183Z,0.40
2019-01-18T06:28:39.743Z,0.40
2019-01-18T06:31:27.345Z,0.40
2019-01-18T06:34:14.959Z,0.40
2019-01-18T06:37:02.028Z,0.40
2019-01-18T06:39:49.780Z,0.40
2019-01-18T06:42:37.069Z,0.30
2019-01-18T06:45:27.615Z,0.30
2019-01-18T06:48:16.215Z,0.20
2019-01-18T06:51:03.521Z,0.20
2019-01-18T06:53:50.731Z,0.30
2019-01-18T06:56:38.232Z,0.40
2019-01-18T06:59:25.496Z,0.60
2019-01-18T07:02:12.851Z,0.70
2019-01-18T07:05:00.261Z,0.60
2019-01-18T07:07:47.715Z,0.70
2019-01-18T07:10:35.514Z,0.80
2019-01-18T07:13:22.776Z,0.80
2019-01-18T07:16:09.664Z,0.80
2019-01-18T07:18:56.640Z,0.80
2019-01-18T07:21:44.194Z,0.80
2019-01-18T07:24:31.970Z,0.70
2019-01-18T07:27:19.199Z,0.80
2019-01-18T07:30:09.873Z,0.80
2019-01-18T07:32:57.234Z,0.90
2019-01-18T07:35:44.468Z,0.90
2019-01-18T07:38:31.951Z,1.00
2019-01-18T07:41:19.405Z,1.10
2019-01-18T07:44:06.996Z,1.00
2019-01-18T07:46:54.262Z,1.20
2019-01-18T07:49:41.701Z,1.20
2019-01-18T07:52:28.930Z,1.20
2019-01-18T07:55:15.880Z,1.30
2019-01-18T07:58:02.877Z,1.50
2019-01-18T08:00:50.449Z,1.50
2019-01-18T08:03:37.680Z,1.50
2019-01-18T08:06:25.024Z,1.60
2019-01-18T08:09:12.307Z,1.60
2019-01-18T08:11:59.841Z,1.60
2019-01-18T08:14:47.384Z,1.70
2019-01-18T08:17:34.689Z,1.60
2019-01-18T08:20:24.228Z,1.70
2019-01-18T08:23:11.891Z,1.70
2019-01-18T08:25:59.413Z,1.50
2019-01-18T08:28:48.548Z,1.70
2019-01-18T08:31:35.914Z,1.70
2019-01-18T08:34:23.084Z,1.50
2019-01-18T08:37:10.329Z,1.20
2019-01-18T08:39:57.314Z,1.60
2019-01-18T08:42:44.890Z,1.80
2019-01-18T08:45:38.155Z,1.90
2019-01-18T08:48:25.583Z,2.10
2019-01-18T08:51:13.083Z,2.20
2019-01-18T08:54:00.249Z,2.40
2019-01-18T08:56:47.675Z,2.60
2019-01-18T08:59:35.000Z,2.40
2019-01-18T09:02:22.529Z,2.50
2019-01-18T09:05:12.741Z,2.20
2019-01-18T09:08:00.355Z,2.40
2019-01-18T09:10:47.769Z,2.40
2019-01-18T09:13:34.977Z,2.30
2019-01-18T09:16:22.030Z,2.30
2019-01-18T09:19:09.289Z,2.30
2019-01-18T09:21:56.576Z,2.30
2019-01-18T09:24:43.940Z,2.50
2019-01-18T09:27:31.500Z,2.50
2019-01-18T09:30:21.368Z,2.40
2019-01-18T09:33:08.682Z,2.60
2019-01-18T09:35:55.858Z,2.60
2019-01-18T09:38:43.570Z,2.50
2019-01-18T09:41:31.113Z,2.50
2019-01-18T09:44:18.335Z,2.80
2019-01-18T09:47:05.963Z,2.90
2019-01-18T09:49:53.516Z,2.50
2019-01-18T09:52:40.833Z,3.00
2019-01-18T09:55:28.166Z,3.10
2019-01-18T09:58:15.425Z,3.10
2019-01-18T10:01:02.960Z,3.30
2019-01-18T10:03:50.378Z,3.30
2019-01-18T10:06:37.401Z,3.50
2019-01-18T10:09:24.628Z,3.70
2019-01-18T10:12:11.981Z,3.60
2019-01-18T10:14:59.189Z,3.70
2019-01-18T10:17:46.935Z,3.60
2019-01-18T10:20:34.472Z,3.70
2019-01-18T10:23:21.757Z,3.90
2019-01-18T10:26:09.364Z,3.90
2019-01-18T10:28:56.931Z,3.90
2019-01-18T10:31:44.157Z,4.00
2019-01-18T10:34:31.603Z,4.00
2019-01-18T10:37:18.871Z,3.60
2019-01-18T10:40:14.400Z,3.90
2019-01-18T10:43:01.959Z,3.20
2019-01-18T10:45:49.645Z,3.40
2019-01-18T10:48:36.857Z,3.40
2019-01-18T10:51:24.477Z,3.40
2019-01-18T10:54:11.791Z,3.00
2019-01-18T10:56:59.438Z,3.20
2019-01-18T10:59:46.936Z,3.50
2019-01-18T11:02:34.602Z,3.50
2019-01-18T11:05:22.672Z,3.30
2019-01-18T11:08:10.243Z,3.50
2019-01-18T11:10:57.593Z,3.30
2019-01-18T11:13:44.932Z,3.20
2019-01-18T11:16:32.272Z,3.70
2019-01-18T11:19:19.572Z,3.40
2019-01-18T11:22:06.960Z,3.20
2019-01-18T11:24:54.465Z,3.70
2019-01-18T11:27:41.697Z,3.70
2019-01-18T11:30:28.991Z,3.60
2019-01-18T11:33:16.193Z,4.20
2019-01-18T11:36:04.151Z,4.70
2019-01-18T11:38:51.590Z,4.40
2019-01-18T11:41:39.337Z,4.90
2019-01-18T11:44:26.674Z,4.70
2019-01-18T11:47:13.985Z,4.90
2019-01-18T11:50:01.257Z,4.90
2019-01-18T11:52:48.903Z,4.70
2019-01-18T11:55:35.661Z,4.10
2019-01-18T11:58:27.390Z,4.50
2019-01-18T12:01:14.521Z,4.60
2019-01-18T12:04:01.761Z,5.00
2019-01-18T12:06:49.380Z,5.20
2019-01-18T12:09:36.552Z,5.30
2019-01-18T12:12:25.444Z,5.20
2019-01-18T12:15:13.837Z,5.10
2019-01-18T12:18:01.105Z,4.50
2019-01-18T12:20:48.675Z,4.70
2019-01-18T12:23:35.942Z,4.60
2019-01-18T12:26:23.187Z,4.70
2019-01-18T12:29:10.408Z,4.60
2019-01-18T12:31:57.557Z,4.80
2019-01-18T12:34:44.733Z,4.70
2019-01-18T12:37:32.004Z,4.50
2019-01-18T12:40:19.014Z,4.30
2019-01-18T12:43:06.305Z,4.70
2019-01-18T12:45:53.579Z,4.90
2019-01-18T12:48:40.550Z,5.00
2019-01-18T12:51:27.898Z,5.20
2019-01-18T12:54:15.250Z,4.90
2019-01-18T12:57:02.482Z,4.60
2019-01-18T12:59:49.918Z,4.80
2019-01-18T13:02:37.625Z,5.10
2019-01-18T13:05:28.161Z,5.20
2019-01-18T13:08:15.535Z,5.10
2019-01-18T13:11:02.816Z,5.20
2019-01-18T13:13:50.152Z,5.20
2019-01-18T13:16:37.841Z,5.30
2019-01-18T13:19:24.780Z,5.40
2019-01-18T13:22:12.368Z,5.50
2019-01-18T13:24:59.441Z,5.10
2019-01-18T13:27:47.043Z,4.80
2019-01-18T13:30:34.301Z,5.10
2019-01-18T13:33:21.713Z,5.10
2019-01-18T13:36:11.013Z,5.00
2019-01-18T13:38:58.417Z,5.00
2019-01-18T13:41:45.686Z,5.00
2019-01-18T13:44:33.352Z,5.00
2019-01-18T13:47:20.368Z,4.90
2019-01-18T13:50:16.372Z,5.10
2019-01-18T13:53:03.561Z,5.10
2019-01-18T13:55:50.987Z,5.30
2019-01-18T13:58:38.478Z,4.80
2019-01-18T14:01:25.705Z,5.10
2019-01-18T14:04:13.098Z,5.30
2019-01-18T14:07:00.748Z,5.40
2019-01-18T14:09:48.609Z,5.40
2019-01-18T14:12:36.106Z,5.40
2019-01-18T14:15:25.108Z,5.20
2019-01-18T14:18:12.512Z,5.10
2019-01-18T14:21:00.332Z,4.70
2019-01-18T14:23:47.873Z,4.90
2019-01-18T14:26:35.056Z,5.10
2019-01-18T14:29:22.639Z,5.10
2019-01-18T14:32:09.947Z,5.00
2019-01-18T14:34:57.213Z,4.80
2019-01-18T14:37:44.216Z,4.60
2019-01-18T14:40:31.966Z,4.80
2019-01-18T14:43:19.159Z,4.80
2019-01-18T14:46:06.348Z,4.90
2019-01-18T14:48:53.678Z,4.90
2019-01-18T14:51:41.005Z,4.90
2019-01-18T14:54:28.323Z,4.90
2019-01-18T14:57:15.559Z,4.90
2019-01-18T15:00:05.792Z,5.00
2019-01-18T15:02:53.376Z,4.50
2019-01-18T15:05:40.573Z,4.40
2019-01-18T15:08:28.108Z,4.50
2019-01-18T15:11:15.318Z,4.10
2019-01-18T15:14:03.225Z,3.60
2019-01-18T15:16:50.429Z,3.70
2019-01-18T15:19:38.190Z,3.80
2019-01-18T15:22:25.157Z,3.80
2019-01-18T15:25:12.865Z,4.00
2019-01-18T15:28:01.059Z,4.00
2019-01-18T15:30:48.708Z,3.70
2019-01-18T15:33:36.421Z,3.70
2019-01-18T15:36:23.610Z,3.70
2019-01-18T15:39:11.680Z,3.70
2019-01-18T15:41:59.092Z,3.50
2019-01-18T15:44:46.551Z,3.30
2019-01-18T15:47:33.953Z,3.40
2019-01-18T15:50:29.942Z,3.30
2019-01-18T15:53:17.077Z,3.20
2019-01-18T15:56:05.493Z,3.10
2019-01-18T15:58:53.053Z,3.00
2019-01-18T16:01:40.797Z,2.90
2019-01-18T16:04:28.157Z,2.90
2019-01-18T16:07:15.834Z,2.80
2019-01-18T16:10:03.845Z,2.70
2019-01-18T16:12:51.330Z,2.70
2019-01-18T16:15:44.926Z,2.60
2019-01-18T16:18:32.353Z,2.60
2019-01-18T16:21:20.013Z,2.50
2019-01-18T16:24:07.616Z,2.40
2019-01-18T16:26:55.016Z,2.30
2019-01-18T16:29:42.923Z,2.20
2019-01-18T16:32:30.623Z,2.20
2019-01-18T16:35:18.955Z,2.20
2019-01-18T16:38:09.694Z,2.00
2019-01-18T16:40:57.268Z,2.00
2019-01-18T16:43:44.610Z,2.00
2019-01-18T16:46:31.767Z,1.90
2019-01-18T16:49:19.022Z,1.90
2019-01-18T16:52:06.675Z,1.90
2019-01-18T16:54:54.172Z,1.80
2019-01-18T16:57:41.428Z,1.70
2019-01-18T17:00:37.513Z,1.70
2019-01-18T17:03:30.311Z,1.70
2019-01-18T17:06:14.238Z,1.60
2019-01-18T17:09:01.790Z,1.60
2019-01-18T17:11:49.122Z,1.60
2019-01-18T17:14:36.489Z,1.50
2019-01-18T17:17:23.861Z,1.40
2019-01-18T17:20:20.391Z,1.20
2019-01-18T17:23:07.813Z,1.10
2019-01-18T17:25:55.414Z,1.20
2019-01-18T17:28:42.997Z,1.30
2019-01-18T17:31:30.523Z,1.40
2019-01-18T17:34:17.792Z,1.40
2019-01-18T17:37:05.390Z,1.30
2019-01-18T17:39:53.124Z,1.30
2019-01-18T17:42:49.440Z,1.30
2019-01-18T17:45:42.630Z,1.30
2019-01-18T17:48:38.801Z,1.20
2019-01-18T17:51:44.121Z,1.20
2019-01-18T17:54:46.480Z,1.20
2019-01-18T17:58:04.529Z,1.10
2019-01-18T18:00:57.530Z,1.00
2019-01-18T18:04:02.491Z,1.00
2019-01-18T18:07:18.420Z,1.00
2019-01-18T18:10:24.944Z,1.00
2019-01-18T18:13:33.729Z,1.00
2019-01-18T18:16:43.408Z,1.00
2019-01-18T18:19:45.636Z,0.80
2019-01-18T18:22:53.481Z,0.80
2019-01-18T18:25:46.652Z,0.70
2019-01-18T18:28:48.549Z,0.70
2019-01-18T18:31:44.781Z,0.60
2019-01-18T18:34:54.148Z,0.70
2019-01-18T18:37:58.928Z,0.60
2019-01-18T18:40:55.341Z,0.60
2019-01-18T18:43:51.246Z,0.50
2019-01-18T18:46:50.203Z,0.50
2019-01-18T18:49:58.854Z,0.50
2019-01-18T18:52:58.250Z,0.40
2019-01-18T18:56:10.124Z,0.50
2019-01-18T18:59:12.691Z,0.50
2019-01-18T19:02:28.510Z,0.40
2019-01-18T19:05:36.157Z,-0.30
2019-01-18T19:08:29.258Z,-0.60
2019-01-18T19:11:31.784Z,-0.80
2019-01-18T19:14:25.246Z,-0.40
2019-01-18T19:17:15.792Z,-0.10
2019-01-18T19:20:27.150Z,0.00
2019-01-18T19:23:35.217Z,0.00
2019-01-18T19:26:28.982Z,0.00
2019-01-18T19:29:25.277Z,0.10
2019-01-18T19:32:30.822Z,0.00
2019-01-18T19:35:37.558Z,0.00
2019-01-18T19:38:28.241Z,0.00
2019-01-18T19:41:21.262Z,-0.10
2019-01-18T19:44:17.916Z,-0.10
2019-01-18T19:47:20.532Z,-0.20
2019-01-18T19:50:23.108Z,-0.20
2019-01-18T19:53:28.540Z,-0.20
2019-01-18T19:56:25.173Z,-0.30
2019-01-18T19:59:21.211Z,-0.40
2019-01-18T20:02:20.828Z,-0.50
2019-01-18T20:05:30.541Z,-0.50
2019-01-18T20:08:35.448Z,-0.50
2019-01-18T20:11:31.512Z,-0.60
2019-01-18T20:14:33.501Z,-0.60
2019-01-18T20:17:29.492Z,-0.70
2019-01-18T20:20:20.121Z,-0.70
2019-01-18T20:23:24.122Z,-0.80
2019-01-18T20:26:29.959Z,-0.90
2019-01-18T20:29:20.317Z,-0.90
2019-01-18T20:32:28.769Z,-0.90
2019-01-18T20:35:24.696Z,-1.40
2019-01-18T20:38:32.343Z,-1.70
2019-01-18T20:41:22.442Z,-1.90
2019-01-18T20:44:21.419Z,-2.10
2019-01-18T20:47:31.048Z,-2.20
2019-01-18T20:50:49.653Z,-2.40
2019-01-18T20:53:59.202Z,-2.40
2019-01-18T20:57:01.726Z,-2.60
2019-01-18T21:00:00.807Z,-2.70
2019-01-18T21:03:13.248Z,-2.70
2019-01-18T21:06:03.377Z,-2.90
2019-01-18T21:08:53.359Z,-2.90
2019-01-18T21:11:46.664Z,-2.90
2019-01-18T21:14:36.748Z,-2.90
2019-01-18T21:17:27.026Z,-3.10
2019-01-18T21:20:39.437Z,-3.00
2019-01-18T21:23:36.030Z,-3.10
2019-01-18T21:26:37.698Z,-3.10
2019-01-18T21:29:34.028Z,-3.20
2019-01-18T21:32:32.943Z,-3.30
2019-01-18T21:35:29.135Z,-3.40
2019-01-18T21:38:22.294Z,-3.30
2019-01-18T21:41:12.156Z,-3.60
2019-01-18T21:44:14.433Z,-3.50
2019-01-18T21:47:07.357Z,-3.40
2019-01-18T21:49:57.678Z,-3.50
2019-01-18T21:52:59.899Z,-3.60
2019-01-18T21:56:01.449Z,-3.50
2019-01-18T21:58:54.747Z,-3.50
2019-01-18T22:01:44.838Z,-3.50
2019-01-18T22:04:44.018Z,-3.60
2019-01-18T22:07:37.308Z,-3.70
2019-01-18T22:10:30.265Z,-3.60
2019-01-18T22:13:26.249Z,-3.60
2019-01-18T22:16:38.875Z,-3.70
2019-01-18T22:19:55.979Z,-3.70
2019-01-18T22:22:48.661Z,-3.50
2019-01-18T22:25:44.730Z,-3.40
2019-01-18T22:28:34.764Z,-3.40
2019-01-18T22:31:44.236Z,-3.30
2019-01-18T22:34:40.020Z,-3.30
2019-01-18T22:37:35.765Z,-3.20
2019-01-18T22:40:31.567Z,-3.20
2019-01-18T22:43:24.649Z,-3.10
2019-01-18T22:46:32.578Z,-3.10
2019-01-18T22:49:28.792Z,-3.10
2019-01-18T22:52:21.847Z,-3.10
2019-01-18T22:55:20.918Z,-3.00
2019-01-18T22:58:16.886Z,-3.10
2019-01-18T23:01:33.147Z,-3.10
2019-01-18T23:04:35.448Z,-3.10
2019-01-18T23:07:43.814Z,-3.00
2019-01-18T23:10:33.840Z,-3.00
2019-01-18T23:13:32.098Z,-3.00
2019-01-18T23:16:30.977Z,-3.00
2019-01-18T23:19:33.169Z,-3.00
2019-01-18T23:22:34.726Z,-3.00
2019-01-18T23:25:48.984Z,-3.00
2019-01-18T23:28:41.756Z,-3.00
2019-01-18T23:31:46.679Z,-3.00
2019-01-18T23:34:36.971Z,-3.00
2019-01-18T23:37:26.913Z,-3.00
2019-01-18T23:40:28.463Z,-3.00
2019-01-18T23:43:34.526Z,-3.00
2019-01-18T23:46:27.606Z,-3.00
2019-01-18T23:49:23.599Z,-3.10
2019-01-18T23:52:28.756Z,-3.20
2019-01-18T23:55:30.773Z,-3.20
2019-01-18T23:58:36.722Z,-3.40
